Time;durP1;ratioP1;P1;durP2;ratioP2;P2;SDS_P1;SDS_P2;PMS_P1;PMS_P2;Temp;Humidity;BMP_temperature;BMP_pressure;BME280_temperature;BME280_humidity;BME280_pressure;Samples;Min_cycle;Max_cycle;Signal;HPM_P1;HPM_P2
2020/12/19 00:00:10;;;;;;;26.27;21.20;;;4.20;99.90;;;;;;5010208;28;20444;-25
2020/12/19 00:02:37;;;;;;;23.63;20.90;;;4.20;99.90;;;;;;4994838;28;20456;-25
2020/12/19 00:05:05;;;;;;;26.93;19.47;;;4.20;99.90;;;;;;4995264;28;20472;-25
2020/12/19 00:07:33;;;;;;;24.70;20.47;;;4.20;99.90;;;;;;4995396;28;20433;-25
2020/12/19 00:10:03;;;;;;;25.27;19.83;;;4.10;99.90;;;;;;4995327;28;20665;-25
2020/12/19 00:12:30;;;;;;;21.07;18.80;;;4.10;99.90;;;;;;4994723;28;20440;-25
2020/12/19 00:14:58;;;;;;;24.00;18.80;;;4.10;99.90;;;;;;4994783;28;20444;-25
2020/12/19 00:17:24;;;;;;;21.70;19.40;;;4.20;99.90;;;;;;4994669;28;20681;-25
2020/12/19 00:19:51;;;;;;;21.90;18.47;;;4.20;99.90;;;;;;4994008;28;20801;-25
2020/12/19 00:22:20;;;;;;;21.90;18.13;;;4.30;99.90;;;;;;4995173;28;20444;-25
2020/12/19 00:24:48;;;;;;;19.47;17.30;;;4.30;99.90;;;;;;4994320;28;20476;-25
2020/12/19 00:27:15;;;;;;;20.27;18.03;;;4.30;99.90;;;;;;4994294;28;20443;-25
2020/12/19 00:29:42;;;;;;;19.97;17.40;;;4.30;99.90;;;;;;4995370;28;20445;-25
2020/12/19 00:32:10;;;;;;;20.20;17.80;;;4.20;99.90;;;;;;4994416;28;20445;-25
2020/12/19 00:34:38;;;;;;;22.23;18.37;;;4.10;99.90;;;;;;4994420;28;20543;-25
2020/12/19 00:37:04;;;;;;;20.63;18.53;;;4.10;99.90;;;;;;4994041;28;20457;-25
2020/12/19 00:39:31;;;;;;;22.77;18.53;;;4.10;99.90;;;;;;4997698;28;20898;-24
2020/12/19 00:41:57;;;;;;;22.10;17.63;;;4.00;99.90;;;;;;4999606;28;20440;-25
2020/12/19 00:44:25;;;;;;;20.30;17.97;;;4.00;99.90;;;;;;4993137;28;20472;-25
2020/12/19 00:46:52;;;;;;;27.57;22.00;;;3.90;99.90;;;;;;4992443;28;20873;-25
2020/12/19 00:49:19;;;;;;;20.33;18.20;;;3.90;99.90;;;;;;4992930;28;20482;-25
2020/12/19 00:51:46;;;;;;;24.80;18.10;;;3.90;99.90;;;;;;4992275;28;20801;-25
2020/12/19 00:54:13;;;;;;;24.50;20.70;;;3.90;99.90;;;;;;4991860;28;20456;-26
2020/12/19 00:56:40;;;;;;;28.93;21.73;;;3.90;99.90;;;;;;4992373;28;20480;-25
2020/12/19 00:59:07;;;;;;;30.00;21.90;;;3.90;99.90;;;;;;4991265;28;21091;-25
2020/12/19 01:01:35;;;;;;;26.27;21.80;;;3.90;99.90;;;;;;4993037;28;20441;-25
2020/12/19 01:04:01;;;;;;;22.00;19.30;;;3.80;99.90;;;;;;4992414;28;20765;-25
2020/12/19 01:06:29;;;;;;;22.53;19.27;;;3.80;99.90;;;;;;4992186;28;20443;-25
2020/12/19 01:08:58;;;;;;;24.90;18.40;;;3.80;99.90;;;;;;4993151;28;20459;-26
2020/12/19 01:11:26;;;;;;;22.50;19.23;;;3.80;99.90;;;;;;4992553;28;21131;-25
2020/12/19 01:13:53;;;;;;;22.70;19.23;;;3.80;99.90;;;;;;4992753;28;20479;-25
2020/12/19 01:16:21;;;;;;;20.57;17.60;;;3.70;99.90;;;;;;4992053;28;20916;-25
2020/12/19 01:18:50;;;;;;;19.33;16.73;;;3.80;99.90;;;;;;4992325;28;20968;-25
2020/12/19 01:21:18;;;;;;;19.60;17.23;;;3.70;99.90;;;;;;4992171;28;20440;-25
2020/12/19 01:23:45;;;;;;;18.20;16.30;;;3.70;99.90;;;;;;4993451;28;20590;-25
2020/12/19 01:26:12;;;;;;;19.33;17.33;;;3.70;99.90;;;;;;4992077;28;20444;-25
2020/12/19 01:28:40;;;;;;;20.57;17.20;;;3.70;99.90;;;;;;4991645;28;20467;-25
2020/12/19 01:31:08;;;;;;;18.40;16.23;;;3.70;99.90;;;;;;4991527;28;20432;-25
2020/12/19 01:33:36;;;;;;;19.20;17.20;;;3.70;99.90;;;;;;4991488;28;20440;-25
2020/12/19 01:36:07;;;;;;;20.10;18.10;;;3.70;99.90;;;;;;4992388;28;20730;-25
2020/12/19 01:38:34;;;;;;;21.43;16.57;;;3.70;99.90;;;;;;4991748;28;21057;-25
2020/12/19 01:41:01;;;;;;;18.30;15.10;;;3.70;99.90;;;;;;4991915;28;20433;-25
2020/12/19 01:43:42;;;;;;;21.83;16.87;;;3.70;99.90;;;;;;4992077;28;20473;-25
2020/12/19 01:46:08;;;;;;;15.90;14.23;;;3.60;99.90;;;;;;4991752;28;20440;-25
2020/12/19 01:48:37;;;;;;;16.33;14.60;;;3.60;99.90;;;;;;4992508;28;20452;-25
2020/12/19 01:51:04;;;;;;;19.60;17.17;;;3.60;99.90;;;;;;4992823;28;20514;-25
2020/12/19 01:53:31;;;;;;;19.67;17.07;;;3.60;99.90;;;;;;4993602;28;20948;-25
2020/12/19 01:55:59;;;;;;;18.20;16.30;;;3.50;99.90;;;;;;4993233;28;20479;-25
2020/12/19 01:58:27;;;;;;;19.63;17.43;;;3.60;99.90;;;;;;4991203;28;20448;-25
2020/12/19 02:00:56;;;;;;;19.83;17.70;;;3.50;99.90;;;;;;4991407;28;20452;-25
2020/12/19 02:03:23;;;;;;;18.83;16.90;;;3.50;99.90;;;;;;4991163;28;20507;-25
2020/12/19 02:05:51;;;;;;;21.07;17.27;;;3.50;99.90;;;;;;4991704;28;20444;-25
2020/12/19 02:08:19;;;;;;;21.20;17.27;;;3.50;99.90;;;;;;4991456;28;20472;-25
2020/12/19 02:10:46;;;;;;;18.80;16.07;;;3.50;99.90;;;;;;4990775;28;20858;-25
2020/12/19 02:13:13;;;;;;;15.93;14.37;;;3.50;99.90;;;;;;4990299;28;20445;-25
2020/12/19 02:15:40;;;;;;;18.27;15.80;;;3.40;99.90;;;;;;4990857;28;20449;-25
2020/12/19 02:18:07;;;;;;;16.40;14.67;;;3.40;99.90;;;;;;4991522;28;20468;-25
2020/12/19 02:20:34;;;;;;;20.43;16.73;;;3.30;99.90;;;;;;4991296;28;20447;-25
2020/12/19 02:23:02;;;;;;;17.47;15.83;;;3.30;99.90;;;;;;4991759;28;20469;-25
2020/12/19 02:25:33;;;;;;;20.17;16.27;;;3.40;99.90;;;;;;4993330;28;20567;-25
2020/12/19 02:28:02;;;;;;;17.57;15.40;;;3.30;99.90;;;;;;4993256;28;20436;-25
2020/12/19 02:30:29;;;;;;;21.47;16.43;;;3.30;99.90;;;;;;4993149;28;21069;-25
2020/12/19 02:32:56;;;;;;;22.63;16.07;;;3.30;99.90;;;;;;4992945;28;20444;-25
2020/12/19 02:35:23;;;;;;;17.37;15.73;;;3.30;99.90;;;;;;4992376;28;20741;-25
2020/12/19 02:37:49;;;;;;;16.40;14.70;;;3.40;99.90;;;;;;4991584;28;20452;-25
2020/12/19 02:40:16;;;;;;;18.87;16.80;;;3.40;99.90;;;;;;4991851;28;20778;-25
2020/12/19 02:42:44;;;;;;;20.17;15.03;;;3.40;99.90;;;;;;4994256;28;20472;-25
2020/12/19 02:45:10;;;;;;;19.90;16.57;;;3.40;99.90;;;;;;4993749;28;20471;-25
2020/12/19 02:47:37;;;;;;;17.83;15.80;;;3.50;99.90;;;;;;4995170;28;20823;-25
2020/12/19 02:50:06;;;;;;;18.13;16.17;;;3.40;99.90;;;;;;4993524;28;20539;-25
2020/12/19 02:52:33;;;;;;;17.23;15.43;;;3.40;99.90;;;;;;4993534;28;20748;-25
2020/12/19 02:54:59;;;;;;;17.97;16.07;;;3.40;99.90;;;;;;4994273;28;20485;-25
2020/12/19 02:57:26;;;;;;;16.10;14.53;;;3.40;99.90;;;;;;4994599;28;20740;-25
2020/12/19 02:59:54;;;;;;;18.37;15.50;;;3.40;99.90;;;;;;4995271;28;20452;-25
2020/12/19 03:02:21;;;;;;;18.17;14.63;;;3.30;99.90;;;;;;4995115;28;20444;-25
2020/12/19 03:04:48;;;;;;;21.27;13.77;;;3.30;99.90;;;;;;4995082;28;20483;-25
2020/12/19 03:07:14;;;;;;;15.63;12.93;;;3.30;99.90;;;;;;4996058;28;20429;-25
2020/12/19 03:09:41;;;;;;;17.13;15.37;;;3.30;99.90;;;;;;4995677;28;20905;-25
2020/12/19 03:12:07;;;;;;;15.83;14.20;;;3.30;99.90;;;;;;4995073;28;20440;-25
2020/12/19 03:14:34;;;;;;;15.73;13.53;;;3.30;99.90;;;;;;4995212;28;20448;-25
2020/12/19 03:17:01;;;;;;;14.13;12.63;;;3.30;99.90;;;;;;4995630;28;20444;-25
2020/12/19 03:19:28;;;;;;;14.70;13.13;;;3.30;99.90;;;;;;4994420;28;20437;-25
2020/12/19 03:21:55;;;;;;;17.50;13.77;;;3.20;99.90;;;;;;4994662;28;20436;-25
2020/12/19 03:24:21;;;;;;;19.43;14.57;;;3.20;99.90;;;;;;4995439;28;20476;-25
2020/12/19 03:26:48;;;;;;;15.87;14.23;;;3.20;99.90;;;;;;4994498;28;20452;-25
2020/12/19 03:29:14;;;;;;;18.27;14.63;;;3.10;99.90;;;;;;4994222;28;20444;-25
2020/12/19 03:31:41;;;;;;;16.47;14.20;;;3.10;99.90;;;;;;4993849;28;20451;-25
2020/12/19 03:34:08;;;;;;;20.57;14.90;;;3.10;99.90;;;;;;4994886;28;20436;-25
2020/12/19 03:36:36;;;;;;;15.33;13.27;;;3.00;99.90;;;;;;4993900;28;20452;-25
2020/12/19 03:39:03;;;;;;;18.17;14.23;;;3.00;99.90;;;;;;4994116;28;20456;-25
2020/12/19 03:41:30;;;;;;;18.43;15.60;;;3.00;99.90;;;;;;4993520;28;20735;-25
2020/12/19 03:43:56;;;;;;;17.87;14.20;;;3.00;99.90;;;;;;4994550;28;20480;-25
2020/12/19 03:46:23;;;;;;;19.00;15.00;;;3.10;99.90;;;;;;4994545;28;20479;-25
2020/12/19 03:48:50;;;;;;;15.77;14.33;;;3.00;99.90;;;;;;4994308;28;20433;-25
2020/12/19 03:51:17;;;;;;;16.87;15.17;;;3.00;99.90;;;;;;4994347;28;20455;-25
2020/12/19 03:53:44;;;;;;;16.43;14.73;;;3.00;99.90;;;;;;4992756;28;20510;-25
2020/12/19 03:56:11;;;;;;;16.47;14.73;;;3.00;99.90;;;;;;5007459;28;20484;-25
2020/12/19 03:58:37;;;;;;;16.17;14.57;;;3.00;99.90;;;;;;5008942;28;20540;-25
2020/12/19 04:01:04;;;;;;;14.93;13.40;;;3.00;99.90;;;;;;4992385;28;20444;-25
2020/12/19 04:03:30;;;;;;;13.60;12.20;;;2.90;99.90;;;;;;4993251;28;20444;-25
2020/12/19 04:05:57;;;;;;;13.73;11.63;;;2.90;99.90;;;;;;4992568;28;20920;-25
2020/12/19 04:08:24;;;;;;;14.73;12.73;;;2.80;99.90;;;;;;4992174;28;20465;-25
2020/12/19 04:10:51;;;;;;;13.50;12.20;;;2.80;99.90;;;;;;4993280;28;20445;-25
2020/12/19 04:13:17;;;;;;;12.63;11.33;;;2.80;99.90;;;;;;4994505;28;20448;-25
2020/12/19 04:15:44;;;;;;;12.47;11.20;;;2.90;99.90;;;;;;4993891;28;20447;-25
2020/12/19 04:18:10;;;;;;;13.47;12.07;;;2.80;99.90;;;;;;4992205;28;20894;-25
2020/12/19 04:20:37;;;;;;;12.10;10.80;;;2.80;99.90;;;;;;4993164;28;20498;-25
2020/12/19 04:23:04;;;;;;;12.43;11.23;;;2.80;99.90;;;;;;4993027;28;20467;-25
2020/12/19 04:25:32;;;;;;;13.13;11.00;;;2.80;99.90;;;;;;4992762;28;20472;-25
2020/12/19 04:27:58;;;;;;;11.27;10.33;;;2.70;99.90;;;;;;4992857;28;20444;-26
2020/12/19 04:30:25;;;;;;;15.20;13.60;;;2.80;99.90;;;;;;4991603;28;20452;-25
2020/12/19 04:32:52;;;;;;;15.23;12.97;;;2.70;99.90;;;;;;4989760;28;20448;-25
2020/12/19 04:35:18;;;;;;;24.87;17.57;;;2.80;99.90;;;;;;4991216;28;20437;-25
2020/12/19 04:37:45;;;;;;;17.33;15.53;;;2.80;99.90;;;;;;4992695;28;20448;-25
2020/12/19 04:40:11;;;;;;;18.00;14.80;;;2.80;99.90;;;;;;4992094;28;20448;-25
2020/12/19 04:42:39;;;;;;;17.40;13.63;;;2.80;99.90;;;;;;4991954;28;20449;-25
2020/12/19 04:45:06;;;;;;;17.37;14.80;;;2.80;99.90;;;;;;5007044;28;20803;-25
2020/12/19 04:47:33;;;;;;;17.87;13.97;;;2.80;99.90;;;;;;4992273;28;20447;-25
2020/12/19 04:49:59;;;;;;;17.20;14.47;;;2.70;99.90;;;;;;4991836;28;20441;-25
2020/12/19 04:52:27;;;;;;;13.70;12.27;;;2.70;99.90;;;;;;4991504;28;20856;-25
2020/12/19 04:54:54;;;;;;;15.00;13.50;;;2.70;99.90;;;;;;4991417;28;20460;-25
2020/12/19 04:57:21;;;;;;;16.13;14.03;;;2.70;99.90;;;;;;4992155;28;20768;-25
2020/12/19 04:59:49;;;;;;;15.13;13.57;;;2.70;99.90;;;;;;4991488;28;20913;-25
2020/12/19 05:02:16;;;;;;;15.03;13.43;;;2.70;99.90;;;;;;4991945;28;20452;-25
2020/12/19 05:04:43;;;;;;;13.80;12.10;;;2.70;99.90;;;;;;4990293;28;20479;-25
2020/12/19 05:07:11;;;;;;;15.83;14.20;;;2.70;99.90;;;;;;4991909;28;21062;-25
2020/12/19 05:09:38;;;;;;;14.57;12.90;;;2.70;99.90;;;;;;4991508;28;20464;-25
2020/12/19 05:12:05;;;;;;;13.90;12.40;;;2.70;99.90;;;;;;4990759;28;20956;-25
2020/12/19 05:14:33;;;;;;;15.43;12.57;;;2.70;99.90;;;;;;4992639;28;20444;-25
2020/12/19 05:17:00;;;;;;;14.53;13.07;;;2.70;99.90;;;;;;4992270;28;20717;-25
2020/12/19 05:19:27;;;;;;;16.20;13.77;;;2.70;99.90;;;;;;4990880;28;20872;-25
2020/12/19 05:21:56;;;;;;;15.83;12.93;;;2.70;99.90;;;;;;4990166;28;20868;-25
2020/12/19 05:24:29;;;;;;;17.50;13.90;;;2.70;99.90;;;;;;4989911;28;20491;-25
2020/12/19 05:26:56;;;;;;;16.07;14.47;;;2.70;99.90;;;;;;4991179;28;20448;-25
2020/12/19 05:29:23;;;;;;;15.73;14.23;;;2.60;99.90;;;;;;4991665;28;20448;-25
2020/12/19 05:31:58;;;;;;;17.10;14.33;;;2.60;99.90;;;;;;4990473;28;20449;-25
2020/12/19 05:34:27;;;;;;;15.20;13.43;;;2.60;99.90;;;;;;4990879;28;20468;-25
2020/12/19 05:36:55;;;;;;;16.33;12.60;;;2.60;99.90;;;;;;4989833;28;20432;-25
2020/12/19 05:39:23;;;;;;;14.97;13.20;;;2.60;99.90;;;;;;4990769;28;20471;-25
2020/12/19 05:41:50;;;;;;;15.73;12.90;;;2.60;99.90;;;;;;4990540;28;20441;-25
2020/12/19 05:44:20;;;;;;;14.87;13.37;;;2.50;99.90;;;;;;4990658;28;20558;-25
2020/12/19 05:46:47;;;;;;;14.77;13.00;;;2.60;99.90;;;;;;4991171;28;20594;-25
2020/12/19 05:49:13;;;;;;;15.50;13.90;;;2.60;99.90;;;;;;4990757;28;20447;-25
2020/12/19 05:51:43;;;;;;;16.80;13.67;;;2.60;99.90;;;;;;4991447;28;20838;-25
2020/12/19 05:54:11;;;;;;;14.37;11.83;;;2.60;99.90;;;;;;4990626;28;20468;-25
2020/12/19 05:56:40;;;;;;;17.03;12.87;;;2.50;99.90;;;;;;4990787;28;21252;-25
2020/12/19 05:59:11;;;;;;;14.03;12.50;;;2.50;99.90;;;;;;4989446;28;20452;-23
2020/12/19 06:01:40;;;;;;;14.43;12.97;;;2.50;99.90;;;;;;4988229;28;20506;-23
2020/12/19 06:04:09;;;;;;;14.80;13.30;;;2.50;99.90;;;;;;5005283;28;20494;-24
2020/12/19 06:06:38;;;;;;;13.97;12.20;;;2.50;99.90;;;;;;4990308;28;20444;-25
2020/12/19 06:09:06;;;;;;;12.17;10.97;;;2.50;99.90;;;;;;4990783;28;20858;-25
2020/12/19 06:11:41;;;;;;;13.20;11.87;;;2.50;99.90;;;;;;4990813;28;20456;-24
2020/12/19 06:14:11;;;;;;;16.60;12.70;;;2.50;99.90;;;;;;4987470;28;20754;-25
2020/12/19 06:16:41;;;;;;;14.60;11.10;;;2.50;99.90;;;;;;4992863;28;20448;-25
2020/12/19 06:19:15;;;;;;;12.47;11.27;;;2.50;99.90;;;;;;4995044;28;20759;-25
2020/12/19 06:21:48;;;;;;;12.83;11.23;;;2.50;99.90;;;;;;4995888;28;20905;-25
2020/12/19 06:24:43;;;;;;;14.13;12.00;;;2.40;99.90;;;;;;4997143;28;20518;-24
2020/12/19 06:27:32;;;;;;;21.83;13.17;;;2.40;99.90;;;;;;4997667;28;20796;-24
2020/12/19 06:29:59;;;;;;;18.90;13.80;;;2.40;99.90;;;;;;4996278;28;20447;-24
2020/12/19 06:32:28;;;;;;;16.90;13.30;;;2.40;99.90;;;;;;4993507;28;20449;-25
2020/12/19 06:34:59;;;;;;;17.80;14.87;;;2.40;99.90;;;;;;4994744;28;20530;-24
2020/12/19 06:37:27;;;;;;;15.60;12.20;;;2.40;99.90;;;;;;4994112;28;20483;-24
2020/12/19 06:40:14;;;;;;;15.53;14.03;;;2.30;99.90;;;;;;4994440;28;20436;-24
2020/12/19 06:42:44;;;;;;;15.53;13.90;;;2.30;99.90;;;;;;5008902;28;20491;-24
2020/12/19 06:45:24;;;;;;;15.90;14.23;;;2.30;99.90;;;;;;4992990;28;20468;-24
2020/12/19 06:47:51;;;;;;;15.80;14.17;;;2.30;99.90;;;;;;4994065;28;20443;-24
2020/12/19 06:50:20;;;;;;;15.37;13.37;;;2.30;99.90;;;;;;4992900;28;20444;-24
2020/12/19 06:52:54;;;;;;;17.53;15.67;;;2.30;99.90;;;;;;4992979;28;20727;-24
2020/12/19 06:55:23;;;;;;;17.30;15.50;;;2.30;99.90;;;;;;4992511;28;20444;-24
2020/12/19 06:57:51;;;;;;;19.20;16.43;;;2.30;99.90;;;;;;4993104;28;20456;-24
2020/12/19 07:00:20;;;;;;;23.30;17.40;;;2.30;99.90;;;;;;4992801;28;21008;-24
2020/12/19 07:02:51;;;;;;;23.73;16.63;;;2.20;99.90;;;;;;4992232;28;20448;-25
2020/12/19 07:05:23;;;;;;;18.37;16.40;;;2.20;99.90;;;;;;4992824;28;20526;-24
2020/12/19 07:07:50;;;;;;;19.27;16.33;;;2.30;99.90;;;;;;4993337;28;20774;-24
2020/12/19 07:10:33;;;;;;;19.60;14.53;;;2.30;99.90;;;;;;4992887;28;20872;-24
2020/12/19 07:12:59;;;;;;;32.50;23.93;;;2.20;99.90;;;;;;4992143;28;20444;-24
2020/12/19 07:15:43;;;;;;;28.30;20.47;;;2.20;99.90;;;;;;4990772;28;20874;-24
2020/12/19 07:18:24;;;;;;;22.47;17.60;;;2.20;99.90;;;;;;4989861;28;20530;-24
2020/12/19 07:20:59;;;;;;;18.50;15.20;;;2.20;99.90;;;;;;4988815;28;20458;-24
2020/12/19 07:23:26;;;;;;;16.17;14.13;;;2.30;99.90;;;;;;4988138;28;20609;-24
2020/12/19 07:25:53;;;;;;;15.50;12.87;;;2.30;99.90;;;;;;4989330;28;20542;-24
2020/12/19 07:28:19;;;;;;;14.70;13.10;;;2.30;99.90;;;;;;4988993;28;20861;-24
2020/12/19 07:30:47;;;;;;;18.30;15.90;;;2.30;99.90;;;;;;4990443;28;20997;-24
2020/12/19 07:33:13;;;;;;;20.80;14.67;;;2.30;99.90;;;;;;4988376;28;20490;-24
2020/12/19 07:35:40;;;;;;;16.80;14.30;;;2.40;99.90;;;;;;4988823;28;20440;-24
2020/12/19 07:38:07;;;;;;;15.17;13.67;;;2.40;99.90;;;;;;4989043;28;20459;-24
2020/12/19 07:40:34;;;;;;;22.53;17.87;;;2.40;99.90;;;;;;4987165;28;20843;-24
2020/12/19 07:43:04;;;;;;;18.07;16.33;;;2.40;99.90;;;;;;4983496;28;20535;-24
2020/12/19 07:45:30;;;;;;;18.13;14.77;;;2.50;99.90;;;;;;4985841;28;20823;-24
2020/12/19 07:47:57;;;;;;;13.90;12.37;;;2.60;99.90;;;;;;4985297;28;20539;-24
2020/12/19 07:50:24;;;;;;;15.40;12.40;;;2.60;99.90;;;;;;4984376;28;20526;-24
2020/12/19 07:52:59;;;;;;;15.80;14.20;;;2.70;99.90;;;;;;4985936;28;20867;-24
2020/12/19 07:55:26;;;;;;;16.60;14.90;;;2.80;99.90;;;;;;4987127;28;20594;-24
2020/12/19 07:57:53;;;;;;;17.50;14.17;;;2.90;99.90;;;;;;4990357;28;20449;-24
2020/12/19 08:00:21;;;;;;;15.03;13.40;;;3.00;99.90;;;;;;4989346;28;20518;-24
2020/12/19 08:02:48;;;;;;;16.87;15.17;;;3.10;99.90;;;;;;4990982;28;20783;-24
2020/12/19 08:05:15;;;;;;;20.10;16.30;;;3.20;99.90;;;;;;4989492;28;20614;-24
2020/12/19 08:07:42;;;;;;;16.23;14.03;;;3.20;99.90;;;;;;4989083;28;20971;-24
2020/12/19 08:10:09;;;;;;;23.57;20.30;;;3.40;99.90;;;;;;4990196;28;20611;-24
2020/12/19 08:12:37;;;;;;;34.83;30.10;;;3.40;99.90;;;;;;4989258;28;21349;-24
2020/12/19 08:15:06;;;;;;;26.93;22.00;;;3.50;99.90;;;;;;4989622;28;20437;-24
2020/12/19 08:17:38;;;;;;;21.70;17.00;;;3.60;99.90;;;;;;4988934;28;20429;-24
2020/12/19 08:20:05;;;;;;;17.30;15.53;;;3.70;99.90;;;;;;4989460;28;20455;-24
2020/12/19 08:22:34;;;;;;;17.70;14.97;;;3.80;99.90;;;;;;4991426;28;20460;-24
2020/12/19 08:25:00;;;;;;;15.50;14.00;;;3.90;99.90;;;;;;4990980;28;20530;-24
2020/12/19 08:27:40;;;;;;;17.70;15.90;;;3.90;99.90;;;;;;4990501;28;21125;-24
2020/12/19 08:30:11;;;;;;;27.53;22.77;;;4.00;99.90;;;;;;4987506;28;20452;-24
2020/12/19 08:32:44;;;;;;;31.07;22.50;;;4.10;99.90;;;;;;4989846;28;20498;-24
2020/12/19 08:35:16;;;;;;;20.27;17.93;;;4.20;99.90;;;;;;4991195;28;20565;-25
2020/12/19 08:38:05;;;;;;;17.60;15.70;;;4.30;99.90;;;;;;4989244;28;20463;-24
2020/12/19 08:40:34;;;;;;;19.73;14.87;;;4.40;99.90;;;;;;4990523;28;20452;-24
2020/12/19 08:43:02;;;;;;;23.33;15.67;;;4.40;99.90;;;;;;4991271;28;20445;-24
2020/12/19 08:45:31;;;;;;;19.87;15.40;;;4.50;99.90;;;;;;4990344;28;20468;-25
2020/12/19 08:48:00;;;;;;;20.13;16.40;;;4.60;99.90;;;;;;4990989;28;20475;-25
2020/12/19 08:50:33;;;;;;;20.90;17.77;;;4.70;99.90;;;;;;4990246;28;20671;-25
2020/12/19 08:53:11;;;;;;;15.50;14.00;;;4.80;99.90;;;;;;4989152;28;20468;-25
2020/12/19 08:55:38;;;;;;;15.30;13.70;;;4.90;99.90;;;;;;4989488;28;21113;-25
2020/12/19 08:58:04;;;;;;;18.47;16.50;;;4.90;99.90;;;;;;4987795;28;20451;-25
2020/12/19 09:00:34;;;;;;;15.10;13.67;;;5.00;99.90;;;;;;4989116;28;20445;-25
2020/12/19 09:03:04;;;;;;;17.50;14.70;;;5.10;99.90;;;;;;4988578;28;20440;-25
2020/12/19 09:05:32;;;;;;;12.57;11.47;;;5.20;99.90;;;;;;4987601;28;20475;-25
2020/12/19 09:07:59;;;;;;;15.00;13.53;;;5.40;99.90;;;;;;4987538;28;20463;-25
2020/12/19 09:10:28;;;;;;;14.03;12.63;;;5.50;99.90;;;;;;4987630;28;20461;-25
2020/12/19 09:13:19;;;;;;;13.17;11.87;;;5.60;99.90;;;;;;4969708;28;20441;-25
2020/12/19 09:15:46;;;;;;;13.10;10.07;;;5.70;99.90;;;;;;4989144;28;20498;-25
2020/12/19 09:18:25;;;;;;;11.57;10.63;;;5.80;99.90;;;;;;4988210;28;20700;-25
2020/12/19 09:20:55;;;;;;;12.37;11.17;;;6.00;99.90;;;;;;4989428;28;20469;-25
2020/12/19 09:23:24;;;;;;;11.40;10.27;;;6.10;99.90;;;;;;4986881;28;20530;-25
2020/12/19 09:25:51;;;;;;;12.03;9.70;;;6.10;99.90;;;;;;4985919;28;20792;-25
2020/12/19 09:28:18;;;;;;;11.20;10.23;;;6.30;99.90;;;;;;4987658;28;20747;-25
2020/12/19 09:30:44;;;;;;;12.03;10.83;;;6.30;99.90;;;;;;4986155;28;20996;-25
2020/12/19 09:33:11;;;;;;;14.57;12.20;;;6.40;99.90;;;;;;4987350;28;20456;-25
2020/12/19 09:35:38;;;;;;;11.60;10.00;;;6.60;99.90;;;;;;4986486;28;20938;-25
2020/12/19 09:38:06;;;;;;;13.90;12.70;;;6.70;99.90;;;;;;4987287;28;20448;-25
2020/12/19 09:40:33;;;;;;;12.60;11.40;;;6.80;99.90;;;;;;4986470;28;20547;-26
2020/12/19 09:42:59;;;;;;;13.00;11.87;;;6.90;99.90;;;;;;4986268;28;20441;-25
2020/12/19 09:45:26;;;;;;;11.20;10.20;;;7.00;99.90;;;;;;4989213;28;20544;-25
2020/12/19 09:47:54;;;;;;;10.03;9.13;;;7.00;99.90;;;;;;4988754;28;20522;-25
2020/12/19 09:50:23;;;;;;;11.30;10.20;;;7.10;99.90;;;;;;4987213;28;20480;-25
2020/12/19 09:52:50;;;;;;;11.67;10.03;;;7.20;99.90;;;;;;4987309;28;20468;-25
2020/12/19 09:55:17;;;;;;;9.87;9.03;;;7.30;99.90;;;;;;4984496;28;20480;-25
2020/12/19 09:57:44;;;;;;;10.50;9.47;;;7.40;99.90;;;;;;4984738;28;20567;-25
2020/12/19 10:00:12;;;;;;;9.90;9.00;;;7.50;99.90;;;;;;4987155;28;20459;-25
2020/12/19 10:02:40;;;;;;;7.97;7.27;;;7.50;99.90;;;;;;4984688;28;20484;-25
2020/12/19 10:05:07;;;;;;;8.83;8.10;;;7.50;99.90;;;;;;4986209;28;21026;-25
2020/12/19 10:07:34;;;;;;;9.00;7.83;;;7.50;99.90;;;;;;4986706;28;20937;-25
2020/12/19 10:10:02;;;;;;;10.57;9.67;;;7.40;99.90;;;;;;4987285;28;20448;-25
2020/12/19 10:12:28;;;;;;;9.57;8.67;;;7.20;99.90;;;;;;4982756;28;20792;-25
2020/12/19 10:14:55;;;;;;;10.10;9.30;;;7.40;99.90;;;;;;4987751;28;20459;-25
2020/12/19 10:17:21;;;;;;;9.03;8.13;;;7.60;99.90;;;;;;4985114;28;20440;-25
2020/12/19 10:19:48;;;;;;;9.50;8.70;;;7.70;99.90;;;;;;4987427;28;20983;-25
2020/12/19 10:22:15;;;;;;;9.43;8.67;;;7.80;99.90;;;;;;4987023;28;20542;-25
2020/12/19 10:24:42;;;;;;;8.07;7.27;;;7.90;99.90;;;;;;4968803;28;20473;-25
2020/12/19 10:27:09;;;;;;;9.00;8.20;;;7.70;99.90;;;;;;4987426;28;20535;-25
2020/12/19 10:29:36;;;;;;;9.47;8.33;;;7.70;99.90;;;;;;4986058;28;20463;-25
2020/12/19 10:32:07;;;;;;;9.23;8.33;;;7.70;99.90;;;;;;4987679;28;20445;-25
2020/12/19 10:34:33;;;;;;;9.07;8.10;;;7.70;99.90;;;;;;4985993;28;20544;-25
2020/12/19 10:37:00;;;;;;;8.50;7.90;;;7.70;99.90;;;;;;4984998;28;20440;-25
2020/12/19 10:39:27;;;;;;;8.50;7.80;;;7.70;99.90;;;;;;4986977;28;20441;-25
2020/12/19 10:41:53;;;;;;;8.60;7.90;;;7.80;99.90;;;;;;4987062;28;20468;-25
2020/12/19 10:44:21;;;;;;;8.40;7.70;;;7.90;99.90;;;;;;4985959;28;21092;-25
2020/12/19 10:46:47;;;;;;;9.47;7.40;;;7.90;99.90;;;;;;4987873;28;20594;-25
2020/12/19 10:49:14;;;;;;;7.97;7.27;;;8.10;99.90;;;;;;4985835;28;20502;-25
2020/12/19 10:51:41;;;;;;;9.67;8.23;;;8.20;99.90;;;;;;4985881;28;21231;-25
2020/12/19 10:54:07;;;;;;;9.80;8.70;;;8.40;99.90;;;;;;4986255;28;20447;-25
2020/12/19 10:56:34;;;;;;;10.40;9.00;;;8.50;99.90;;;;;;4986711;28;20484;-25
2020/12/19 10:59:01;;;;;;;9.80;8.87;;;8.50;99.90;;;;;;4986272;28;20452;-26
2020/12/19 11:01:28;;;;;;;9.67;8.63;;;8.70;99.90;;;;;;4984982;28;20488;-26
2020/12/19 11:03:55;;;;;;;9.33;8.33;;;8.90;99.90;;;;;;4992837;28;20444;-25
2020/12/19 11:06:22;;;;;;;9.53;8.63;;;9.10;99.90;;;;;;4990565;28;20487;-25
2020/12/19 11:08:49;;;;;;;9.23;8.30;;;9.30;99.90;;;;;;4987902;28;20474;-25
2020/12/19 11:11:17;;;;;;;7.90;7.20;;;9.40;99.90;;;;;;4985390;28;20452;-25
2020/12/19 11:13:45;;;;;;;8.60;7.80;;;9.40;99.90;;;;;;4986947;28;20424;-25
2020/12/19 11:16:20;;;;;;;10.27;7.70;;;9.50;99.90;;;;;;4984741;28;20455;-25
2020/12/19 11:18:50;;;;;;;8.53;7.77;;;9.60;99.90;;;;;;4985805;28;20451;-25
2020/12/19 11:21:17;;;;;;;8.17;7.43;;;9.60;99.90;;;;;;4983712;28;20448;-25
2020/12/19 11:23:45;;;;;;;9.07;8.13;;;9.70;99.90;;;;;;4985836;28;20445;-26
2020/12/19 11:26:11;;;;;;;7.50;7.00;;;9.80;99.90;;;;;;4985369;28;20790;-25
2020/12/19 11:28:38;;;;;;;7.40;6.90;;;9.90;99.90;;;;;;4983768;28;20556;-25
2020/12/19 11:31:07;;;;;;;9.73;8.73;;;9.90;99.90;;;;;;4981538;28;20456;-25
2020/12/19 11:33:34;;;;;;;16.77;11.43;;;9.90;99.90;;;;;;4985483;28;20436;-25
2020/12/19 11:36:02;;;;;;;10.00;9.00;;;10.00;99.90;;;;;;4984977;28;20449;-25
2020/12/19 11:38:29;;;;;;;7.40;6.80;;;10.00;99.90;;;;;;4986309;28;20456;-26
2020/12/19 11:40:56;;;;;;;7.80;7.20;;;9.90;99.90;;;;;;4966599;28;20894;-25
2020/12/19 11:43:23;;;;;;;7.00;6.40;;;10.00;99.90;;;;;;4983580;28;20483;-25
2020/12/19 11:45:52;;;;;;;5.77;5.40;;;10.10;99.90;;;;;;4985532;28;20484;-25
2020/12/19 11:48:25;;;;;;;6.80;6.30;;;10.20;99.90;;;;;;4982867;28;20456;-26
2020/12/19 11:50:54;;;;;;;6.93;6.43;;;10.30;99.90;;;;;;4989702;28;20456;-25
2020/12/19 11:53:22;;;;;;;7.03;6.63;;;10.40;99.90;;;;;;4983865;28;20452;-26
2020/12/19 11:55:48;;;;;;;6.47;5.97;;;10.30;99.90;;;;;;4984084;28;20574;-25
2020/12/19 11:58:15;;;;;;;6.47;6.07;;;10.30;99.90;;;;;;4986438;28;20460;-25
2020/12/19 12:00:41;;;;;;;5.93;5.63;;;10.40;99.90;;;;;;4984683;28;20487;-26
2020/12/19 12:03:10;;;;;;;7.60;7.07;;;10.40;99.90;;;;;;4985894;28;20459;-25
2020/12/19 12:05:37;;;;;;;7.20;6.70;;;10.50;99.90;;;;;;4965013;28;20472;-26
2020/12/19 12:08:04;;;;;;;9.90;7.40;;;10.60;99.90;;;;;;4987759;28;20435;-25
2020/12/19 12:10:33;;;;;;;7.10;6.60;;;10.60;99.90;;;;;;4990280;28;20468;-25
2020/12/19 12:12:59;;;;;;;8.00;6.70;;;10.70;99.90;;;;;;4985752;28;21031;-25
2020/12/19 12:15:26;;;;;;;6.40;5.90;;;10.70;99.90;;;;;;4984445;28;20480;-25
2020/12/19 12:17:52;;;;;;;7.00;6.57;;;10.70;99.90;;;;;;4985622;28;20744;-25
2020/12/19 12:20:19;;;;;;;7.07;6.57;;;10.70;99.90;;;;;;4986237;28;20447;-26
2020/12/19 12:22:46;;;;;;;7.43;6.70;;;10.80;99.90;;;;;;4983722;28;20747;-26
2020/12/19 12:25:12;;;;;;;6.13;5.73;;;10.80;99.90;;;;;;4984942;28;20536;-26
2020/12/19 12:27:40;;;;;;;7.70;7.10;;;10.70;99.90;;;;;;4984938;28;20464;-26
2020/12/19 12:30:07;;;;;;;7.17;6.57;;;10.80;99.90;;;;;;4980615;28;20464;-25
2020/12/19 12:32:34;;;;;;;7.77;7.07;;;10.80;99.90;;;;;;4981051;28;21099;-25
2020/12/19 12:35:00;;;;;;;7.77;7.13;;;10.90;99.90;;;;;;4984818;28;20447;-25
2020/12/19 12:37:27;;;;;;;7.87;7.17;;;10.90;99.90;;;;;;4983651;28;20531;-25
2020/12/19 12:39:54;;;;;;;7.37;6.87;;;10.90;99.90;;;;;;4984156;28;20452;-26
2020/12/19 12:42:21;;;;;;;7.93;7.17;;;10.90;99.90;;;;;;4983792;28;20437;-25
2020/12/19 12:44:48;;;;;;;6.90;6.40;;;11.00;99.90;;;;;;4982805;28;20743;-25